sensor_id;sensor_type;location;lat;lon;timestamp;temperature;humidity
50013;DHT22;35901;48.694;9.476;2022-09-13T00:01:52;9.90;99.90
50013;DHT22;35901;48.694;9.476;2022-09-13T00:04:18;9.90;99.90
50013;DHT22;35901;48.694;9.476;2022-09-13T00:06:44;9.90;99.90
50013;DHT22;35901;48.694;9.476;2022-09-13T00:09:09;10.00;99.90
50013;DHT22;35901;48.694;9.476;2022-09-13T00:11:35;10.00;99.90
50013;DHT22;35901;48.694;9.476;2022-09-13T00:14:02;10.10;99.90
50013;DHT22;35901;48.694;9.476;2022-09-13T00:16:28;10.20;99.90
50013;DHT22;35901;48.694;9.476;2022-09-13T00:18:54;10.30;99.90
50013;DHT22;35901;48.694;9.476;2022-09-13T00:21:21;10.50;99.90
50013;DHT22;35901;48.694;9.476;2022-09-13T00:23:49;10.50;99.90
50013;DHT22;35901;48.694;9.476;2022-09-13T00:26:18;10.30;99.90
50013;DHT22;35901;48.694;9.476;2022-09-13T00:28:43;10.20;99.90
50013;DHT22;35901;48.694;9.476;2022-09-13T00:31:36;10.00;99.90
50013;DHT22;35901;48.694;9.476;2022-09-13T00:34:02;9.90;99.90
50013;DHT22;35901;48.694;9.476;2022-09-13T00:36:27;9.80;99.90
50013;DHT22;35901;48.694;9.476;2022-09-13T00:38:53;9.80;99.90
50013;DHT22;35901;48.694;9.476;2022-09-13T00:41:19;9.80;99.90
50013;DHT22;35901;48.694;9.476;2022-09-13T00:43:56;9.80;99.90
50013;DHT22;35901;48.694;9.476;2022-09-13T00:46:44;9.80;99.90
50013;DHT22;35901;48.694;9.476;2022-09-13T00:49:15;9.70;99.90
50013;DHT22;35901;48.694;9.476;2022-09-13T00:51:44;9.70;99.90
50013;DHT22;35901;48.694;9.476;2022-09-13T00:54:13;9.70;99.90
50013;DHT22;35901;48.694;9.476;2022-09-13T00:56:45;9.60;99.90
50013;DHT22;35901;48.694;9.476;2022-09-13T00:59:16;9.70;99.90
50013;DHT22;35901;48.694;9.476;2022-09-13T01:04:49;9.60;99.90
50013;DHT22;35901;48.694;9.476;2022-09-13T01:07:16;9.50;99.90
50013;DHT22;35901;48.694;9.476;2022-09-13T01:09:44;9.50;99.90
50013;DHT22;35901;48.694;9.476;2022-09-13T01:12:36;9.50;99.90
50013;DHT22;35901;48.694;9.476;2022-09-13T01:15:05;9.50;99.90
50013;DHT22;35901;48.694;9.476;2022-09-13T01:17:32;9.50;99.90
50013;DHT22;35901;48.694;9.476;2022-09-13T01:19:59;9.50;99.90
50013;DHT22;35901;48.694;9.476;2022-09-13T01:28:11;9.40;99.90
50013;DHT22;35901;48.694;9.476;2022-09-13T01:30:57;9.60;99.90
50013;DHT22;35901;48.694;9.476;2022-09-13T01:50:46;9.40;99.90
50013;DHT22;35901;48.694;9.476;2022-09-13T01:56:06;9.40;99.90
50013;DHT22;35901;48.694;9.476;2022-09-13T01:58:47;9.30;99.90
50013;DHT22;35901;48.694;9.476;2022-09-13T02:01:24;9.20;99.90
50013;DHT22;35901;48.694;9.476;2022-09-13T02:11:15;9.00;99.90
50013;DHT22;35901;48.694;9.476;2022-09-13T02:16:38;9.10;99.90
50013;DHT22;35901;48.694;9.476;2022-09-13T02:19:14;9.10;99.90
50013;DHT22;35901;48.694;9.476;2022-09-13T02:21:46;9.10;99.90
50013;DHT22;35901;48.694;9.476;2022-09-13T02:24:24;9.10;99.90
50013;DHT22;35901;48.694;9.476;2022-09-13T02:26:52;9.10;99.90
50013;DHT22;35901;48.694;9.476;2022-09-13T02:29:20;9.10;99.90
50013;DHT22;35901;48.694;9.476;2022-09-13T02:31:59;9.00;99.90
50013;DHT22;35901;48.694;9.476;2022-09-13T02:37:39;9.00;99.90
50013;DHT22;35901;48.694;9.476;2022-09-13T02:40:09;9.00;99.90
50013;DHT22;35901;48.694;9.476;2022-09-13T02:42:42;8.90;99.90
50013;DHT22;35901;48.694;9.476;2022-09-13T02:45:09;8.80;99.90
50013;DHT22;35901;48.694;9.476;2022-09-13T02:47:57;8.80;99.90
50013;DHT22;35901;48.694;9.476;2022-09-13T02:50:45;8.80;99.90
50013;DHT22;35901;48.694;9.476;2022-09-13T02:53:30;8.80;99.90
50013;DHT22;35901;48.694;9.476;2022-09-13T02:59:16;8.70;99.90
50013;DHT22;35901;48.694;9.476;2022-09-13T03:02:19;8.60;99.90
50013;DHT22;35901;48.694;9.476;2022-09-13T03:04:38;8.70;99.90
50013;DHT22;35901;48.694;9.476;2022-09-13T03:07:10;8.70;99.90
50013;DHT22;35901;48.694;9.476;2022-09-13T03:09:36;8.80;99.90
50013;DHT22;35901;48.694;9.476;2022-09-13T03:12:43;8.90;99.90
50013;DHT22;35901;48.694;9.476;2022-09-13T03:18:07;9.00;99.90
50013;DHT22;35901;48.694;9.476;2022-09-13T03:20:42;9.00;99.90
50013;DHT22;35901;48.694;9.476;2022-09-13T03:31:34;8.70;99.90
50013;DHT22;35901;48.694;9.476;2022-09-13T03:40:21;8.80;99.90
50013;DHT22;35901;48.694;9.476;2022-09-13T03:42:55;8.80;99.90
50013;DHT22;35901;48.694;9.476;2022-09-13T03:45:26;8.90;99.90
50013;DHT22;35901;48.694;9.476;2022-09-13T03:47:54;8.90;99.90
50013;DHT22;35901;48.694;9.476;2022-09-13T03:50:22;8.80;99.90
50013;DHT22;35901;48.694;9.476;2022-09-13T03:52:59;8.80;99.90
50013;DHT22;35901;48.694;9.476;2022-09-13T03:55:26;8.80;99.90
50013;DHT22;35901;48.694;9.476;2022-09-13T03:57:52;8.60;99.90
50013;DHT22;35901;48.694;9.476;2022-09-13T04:00:18;8.50;99.90
50013;DHT22;35901;48.694;9.476;2022-09-13T04:02:43;8.40;99.90
50013;DHT22;35901;48.694;9.476;2022-09-13T04:05:09;8.40;99.90
50013;DHT22;35901;48.694;9.476;2022-09-13T04:07:35;8.30;99.90
50013;DHT22;35901;48.694;9.476;2022-09-13T04:10:01;8.30;99.90
50013;DHT22;35901;48.694;9.476;2022-09-13T04:12:26;8.20;99.90
50013;DHT22;35901;48.694;9.476;2022-09-13T04:14:55;8.10;99.90
50013;DHT22;35901;48.694;9.476;2022-09-13T04:17:21;8.00;99.90
50013;DHT22;35901;48.694;9.476;2022-09-13T04:19:47;8.10;99.90
50013;DHT22;35901;48.694;9.476;2022-09-13T04:22:13;8.10;99.90
50013;DHT22;35901;48.694;9.476;2022-09-13T04:24:38;8.20;99.90
50013;DHT22;35901;48.694;9.476;2022-09-13T04:27:04;8.20;99.90
50013;DHT22;35901;48.694;9.476;2022-09-13T04:29:30;8.20;99.90
50013;DHT22;35901;48.694;9.476;2022-09-13T04:31:58;8.30;99.90
50013;DHT22;35901;48.694;9.476;2022-09-13T04:34:23;8.30;99.90
50013;DHT22;35901;48.694;9.476;2022-09-13T04:36:51;8.40;99.90
50013;DHT22;35901;48.694;9.476;2022-09-13T04:39:17;8.40;99.90
50013;DHT22;35901;48.694;9.476;2022-09-13T04:41:45;8.50;99.90
50013;DHT22;35901;48.694;9.476;2022-09-13T04:44:13;8.50;99.90
50013;DHT22;35901;48.694;9.476;2022-09-13T04:46:39;8.50;99.90
50013;DHT22;35901;48.694;9.476;2022-09-13T04:49:06;8.50;99.90
50013;DHT22;35901;48.694;9.476;2022-09-13T04:51:33;8.60;99.90
50013;DHT22;35901;48.694;9.476;2022-09-13T04:53:59;8.60;99.90
50013;DHT22;35901;48.694;9.476;2022-09-13T04:56:25;8.60;99.90
50013;DHT22;35901;48.694;9.476;2022-09-13T04:58:53;8.50;99.90
50013;DHT22;35901;48.694;9.476;2022-09-13T05:01:19;8.50;99.90
50013;DHT22;35901;48.694;9.476;2022-09-13T05:03:45;8.70;99.90
50013;DHT22;35901;48.694;9.476;2022-09-13T05:06:14;8.70;99.90
50013;DHT22;35901;48.694;9.476;2022-09-13T05:08:42;8.70;99.90
50013;DHT22;35901;48.694;9.476;2022-09-13T05:11:08;8.70;99.90
50013;DHT22;35901;48.694;9.476;2022-09-13T05:13:34;8.80;99.90
50013;DHT22;35901;48.694;9.476;2022-09-13T05:16:03;9.10;99.90
50013;DHT22;35901;48.694;9.476;2022-09-13T05:18:32;9.40;99.90
50013;DHT22;35901;48.694;9.476;2022-09-13T05:20:59;9.50;99.90
50013;DHT22;35901;48.694;9.476;2022-09-13T05:23:26;9.60;99.90
50013;DHT22;35901;48.694;9.476;2022-09-13T05:26:00;9.80;99.90
50013;DHT22;35901;48.694;9.476;2022-09-13T05:28:27;10.20;99.90
50013;DHT22;35901;48.694;9.476;2022-09-13T05:33:56;11.00;99.90
50013;DHT22;35901;48.694;9.476;2022-09-13T05:36:22;11.60;99.90
50013;DHT22;35901;48.694;9.476;2022-09-13T05:38:47;11.90;99.90
50013;DHT22;35901;48.694;9.476;2022-09-13T05:41:13;11.80;99.90
50013;DHT22;35901;48.694;9.476;2022-09-13T05:43:39;11.80;99.90
50013;DHT22;35901;48.694;9.476;2022-09-13T05:46:13;11.60;99.90
50013;DHT22;35901;48.694;9.476;2022-09-13T05:48:39;11.10;99.90
50013;DHT22;35901;48.694;9.476;2022-09-13T05:51:06;10.70;99.90
50013;DHT22;35901;48.694;9.476;2022-09-13T05:53:33;10.60;99.90
50013;DHT22;35901;48.694;9.476;2022-09-13T05:55:58;10.50;99.90
50013;DHT22;35901;48.694;9.476;2022-09-13T05:58:24;10.40;99.90
50013;DHT22;35901;48.694;9.476;2022-09-13T06:00:54;10.30;99.90
50013;DHT22;35901;48.694;9.476;2022-09-13T06:03:21;10.30;99.90
50013;DHT22;35901;48.694;9.476;2022-09-13T06:05:47;10.40;99.90
50013;DHT22;35901;48.694;9.476;2022-09-13T06:08:13;10.40;99.90
50013;DHT22;35901;48.694;9.476;2022-09-13T06:10:39;10.60;99.90
50013;DHT22;35901;48.694;9.476;2022-09-13T06:13:05;10.80;99.90
50013;DHT22;35901;48.694;9.476;2022-09-13T06:15:30;11.00;99.90
50013;DHT22;35901;48.694;9.476;2022-09-13T06:17:56;11.10;99.90
50013;DHT22;35901;48.694;9.476;2022-09-13T06:20:22;11.20;99.90
50013;DHT22;35901;48.694;9.476;2022-09-13T06:22:47;11.10;99.90
50013;DHT22;35901;48.694;9.476;2022-09-13T06:25:13;11.10;99.90
50013;DHT22;35901;48.694;9.476;2022-09-13T06:27:39;11.20;99.90
50013;DHT22;35901;48.694;9.476;2022-09-13T06:30:05;11.40;99.90
50013;DHT22;35901;48.694;9.476;2022-09-13T06:32:34;11.80;99.90
50013;DHT22;35901;48.694;9.476;2022-09-13T06:35:00;12.30;99.90
50013;DHT22;35901;48.694;9.476;2022-09-13T06:37:25;12.70;99.90
50013;DHT22;35901;48.694;9.476;2022-09-13T06:39:51;13.30;99.90
50013;DHT22;35901;48.694;9.476;2022-09-13T06:42:16;14.00;99.90
50013;DHT22;35901;48.694;9.476;2022-09-13T06:44:43;14.40;99.90
50013;DHT22;35901;48.694;9.476;2022-09-13T06:47:11;14.50;99.90
50013;DHT22;35901;48.694;9.476;2022-09-13T06:49:37;14.50;99.90
50013;DHT22;35901;48.694;9.476;2022-09-13T06:52:03;14.30;99.90
50013;DHT22;35901;48.694;9.476;2022-09-13T06:54:29;14.00;99.90
50013;DHT22;35901;48.694;9.476;2022-09-13T06:56:54;13.60;99.90
50013;DHT22;35901;48.694;9.476;2022-09-13T06:59:20;13.50;99.90
50013;DHT22;35901;48.694;9.476;2022-09-13T07:01:46;14.00;99.90
50013;DHT22;35901;48.694;9.476;2022-09-13T07:04:16;14.80;99.90
50013;DHT22;35901;48.694;9.476;2022-09-13T07:06:48;15.50;99.90
50013;DHT22;35901;48.694;9.476;2022-09-13T07:09:23;15.90;99.90
50013;DHT22;35901;48.694;9.476;2022-09-13T07:11:52;16.00;99.90
50013;DHT22;35901;48.694;9.476;2022-09-13T07:14:20;16.10;99.90
50013;DHT22;35901;48.694;9.476;2022-09-13T07:16:47;16.40;99.90
50013;DHT22;35901;48.694;9.476;2022-09-13T07:19:21;16.60;99.90
50013;DHT22;35901;48.694;9.476;2022-09-13T07:21:51;16.80;99.90
50013;DHT22;35901;48.694;9.476;2022-09-13T07:24:18;17.20;99.90
50013;DHT22;35901;48.694;9.476;2022-09-13T07:26:45;17.70;99.90
50013;DHT22;35901;48.694;9.476;2022-09-13T07:29:13;17.60;99.90
50013;DHT22;35901;48.694;9.476;2022-09-13T07:31:43;17.60;99.90
50013;DHT22;35901;48.694;9.476;2022-09-13T07:34:20;17.60;99.90
50013;DHT22;35901;48.694;9.476;2022-09-13T07:36:46;17.20;99.90
50013;DHT22;35901;48.694;9.476;2022-09-13T07:39:13;16.80;99.90
50013;DHT22;35901;48.694;9.476;2022-09-13T07:41:39;16.60;99.90
50013;DHT22;35901;48.694;9.476;2022-09-13T07:44:05;16.50;99.90
50013;DHT22;35901;48.694;9.476;2022-09-13T07:46:33;16.30;99.90
50013;DHT22;35901;48.694;9.476;2022-09-13T07:49:01;16.30;99.90
50013;DHT22;35901;48.694;9.476;2022-09-13T07:51:29;16.10;99.90
50013;DHT22;35901;48.694;9.476;2022-09-13T07:53:57;16.30;99.90
50013;DHT22;35901;48.694;9.476;2022-09-13T07:56:25;16.80;99.90
50013;DHT22;35901;48.694;9.476;2022-09-13T07:58:52;17.30;99.90
50013;DHT22;35901;48.694;9.476;2022-09-13T08:01:27;17.50;99.90
50013;DHT22;35901;48.694;9.476;2022-09-13T08:03:59;17.60;99.90
50013;DHT22;35901;48.694;9.476;2022-09-13T08:06:27;17.70;99.90
50013;DHT22;35901;48.694;9.476;2022-09-13T08:08:54;17.70;99.90
50013;DHT22;35901;48.694;9.476;2022-09-13T08:11:22;18.20;99.90
50013;DHT22;35901;48.694;9.476;2022-09-13T08:13:49;18.80;99.90
50013;DHT22;35901;48.694;9.476;2022-09-13T08:16:17;19.20;99.90
50013;DHT22;35901;48.694;9.476;2022-09-13T08:18:44;19.50;99.90
50013;DHT22;35901;48.694;9.476;2022-09-13T08:21:11;19.70;99.90
50013;DHT22;35901;48.694;9.476;2022-09-13T08:23:36;20.10;99.90
50013;DHT22;35901;48.694;9.476;2022-09-13T08:26:02;20.50;99.90
50013;DHT22;35901;48.694;9.476;2022-09-13T08:28:28;20.90;98.90
50013;DHT22;35901;48.694;9.476;2022-09-13T08:31:01;21.40;98.30
50013;DHT22;35901;48.694;9.476;2022-09-13T08:33:27;21.70;97.90
50013;DHT22;35901;48.694;9.476;2022-09-13T08:35:52;21.70;96.70
50013;DHT22;35901;48.694;9.476;2022-09-13T08:38:20;21.40;96.90
50013;DHT22;35901;48.694;9.476;2022-09-13T08:40:55;21.40;96.80
50013;DHT22;35901;48.694;9.476;2022-09-13T08:49:27;20.70;97.20
50013;DHT22;35901;48.694;9.476;2022-09-13T08:52:00;20.60;97.40
50013;DHT22;35901;48.694;9.476;2022-09-13T08:54:40;20.70;97.60
50013;DHT22;35901;48.694;9.476;2022-09-13T09:03:29;21.70;96.50
50013;DHT22;35901;48.694;9.476;2022-09-13T09:05:24;22.20;94.70
50013;DHT22;35901;48.694;9.476;2022-09-13T09:08:58;22.20;94.30
50013;DHT22;35901;48.694;9.476;2022-09-13T09:11:08;22.70;93.80
50013;DHT22;35901;48.694;9.476;2022-09-13T09:14:12;22.70;93.40
50013;DHT22;35901;48.694;9.476;2022-09-13T09:20:06;23.20;90.60
50013;DHT22;35901;48.694;9.476;2022-09-13T09:22:31;23.30;90.00
50013;DHT22;35901;48.694;9.476;2022-09-13T09:25:02;23.50;90.10
50013;DHT22;35901;48.694;9.476;2022-09-13T09:27:29;23.50;90.40
50013;DHT22;35901;48.694;9.476;2022-09-13T09:29:55;23.40;90.70
50013;DHT22;35901;48.694;9.476;2022-09-13T09:40:45;23.90;87.90
50013;DHT22;35901;48.694;9.476;2022-09-13T09:43:24;23.90;86.30
50013;DHT22;35901;48.694;9.476;2022-09-13T09:45:52;23.80;86.90
50013;DHT22;35901;48.694;9.476;2022-09-13T09:48:22;23.90;87.40
50013;DHT22;35901;48.694;9.476;2022-09-13T09:50:53;24.20;88.10
50013;DHT22;35901;48.694;9.476;2022-09-13T09:53:28;24.00;89.30
50013;DHT22;35901;48.694;9.476;2022-09-13T09:56:19;24.00;90.00
50013;DHT22;35901;48.694;9.476;2022-09-13T09:58:50;24.10;89.60
50013;DHT22;35901;48.694;9.476;2022-09-13T10:06:37;25.00;86.40
50013;DHT22;35901;48.694;9.476;2022-09-13T10:11:50;25.80;82.40
50013;DHT22;35901;48.694;9.476;2022-09-13T10:14:41;25.80;80.10
50013;DHT22;35901;48.694;9.476;2022-09-13T10:17:26;25.60;77.40
50013;DHT22;35901;48.694;9.476;2022-09-13T10:20:00;25.30;78.30
50013;DHT22;35901;48.694;9.476;2022-09-13T10:22:30;25.10;76.90
50013;DHT22;35901;48.694;9.476;2022-09-13T10:25:22;25.20;77.90
50013;DHT22;35901;48.694;9.476;2022-09-13T10:27:54;25.50;77.90
50013;DHT22;35901;48.694;9.476;2022-09-13T10:32:56;25.90;76.10
50013;DHT22;35901;48.694;9.476;2022-09-13T10:35:23;26.10;75.00
50013;DHT22;35901;48.694;9.476;2022-09-13T10:37:51;26.20;75.10
50013;DHT22;35901;48.694;9.476;2022-09-13T10:40:31;26.40;74.40
50013;DHT22;35901;48.694;9.476;2022-09-13T10:43:13;26.30;73.60
50013;DHT22;35901;48.694;9.476;2022-09-13T10:45:40;26.60;73.60
50013;DHT22;35901;48.694;9.476;2022-09-13T10:48:14;26.90;71.80
50013;DHT22;35901;48.694;9.476;2022-09-13T10:53:37;27.50;69.80
50013;DHT22;35901;48.694;9.476;2022-09-13T10:56:05;27.80;68.80
50013;DHT22;35901;48.694;9.476;2022-09-13T10:58:31;28.10;67.40
50013;DHT22;35901;48.694;9.476;2022-09-13T11:12:21;27.60;63.30
50013;DHT22;35901;48.694;9.476;2022-09-13T11:20:50;28.20;58.30
50013;DHT22;35901;48.694;9.476;2022-09-13T11:23:27;28.30;59.30
50013;DHT22;35901;48.694;9.476;2022-09-13T11:36:57;29.20;59.40
50013;DHT22;35901;48.694;9.476;2022-09-13T11:44:51;28.80;59.40
50013;DHT22;35901;48.694;9.476;2022-09-13T11:47:35;28.70;59.40
50013;DHT22;35901;48.694;9.476;2022-09-13T11:50:25;28.60;59.50
50013;DHT22;35901;48.694;9.476;2022-09-13T11:57:55;29.20;59.60
50013;DHT22;35901;48.694;9.476;2022-09-13T12:00:42;29.60;59.20
50013;DHT22;35901;48.694;9.476;2022-09-13T12:06:00;29.40;58.90
50013;DHT22;35901;48.694;9.476;2022-09-13T12:08:35;29.10;58.60
50013;DHT22;35901;48.694;9.476;2022-09-13T12:13:41;28.80;59.40
50013;DHT22;35901;48.694;9.476;2022-09-13T12:16:44;28.70;59.20
50013;DHT22;35901;48.694;9.476;2022-09-13T12:19:18;28.50;59.70
50013;DHT22;35901;48.694;9.476;2022-09-13T12:21:46;28.60;59.60
50013;DHT22;35901;48.694;9.476;2022-09-13T12:24:20;28.80;61.30
50013;DHT22;35901;48.694;9.476;2022-09-13T12:27:11;28.80;61.70
50013;DHT22;35901;48.694;9.476;2022-09-13T12:29:53;28.90;60.90
50013;DHT22;35901;48.694;9.476;2022-09-13T12:32:20;29.00;58.70
50013;DHT22;35901;48.694;9.476;2022-09-13T12:35:07;28.90;57.60
50013;DHT22;35901;48.694;9.476;2022-09-13T12:43:47;29.00;57.50
50013;DHT22;35901;48.694;9.476;2022-09-13T12:49:59;29.20;56.30
50013;DHT22;35901;48.694;9.476;2022-09-13T12:52:39;29.30;56.10
50013;DHT22;35901;48.694;9.476;2022-09-13T13:00:31;29.40;56.00
50013;DHT22;35901;48.694;9.476;2022-09-13T13:06:05;29.50;55.10
50013;DHT22;35901;48.694;9.476;2022-09-13T13:08:32;29.70;55.00
50013;DHT22;35901;48.694;9.476;2022-09-13T13:11:10;29.90;54.90
50013;DHT22;35901;48.694;9.476;2022-09-13T13:13:55;30.00;52.90
50013;DHT22;35901;48.694;9.476;2022-09-13T13:16:32;29.80;52.90
50013;DHT22;35901;48.694;9.476;2022-09-13T13:19:04;29.70;53.00
50013;DHT22;35901;48.694;9.476;2022-09-13T13:21:36;29.30;52.90
50013;DHT22;35901;48.694;9.476;2022-09-13T13:26:52;28.90;52.70
50013;DHT22;35901;48.694;9.476;2022-09-13T13:29:25;28.90;52.60
50013;DHT22;35901;48.694;9.476;2022-09-13T13:34:45;29.20;53.70
50013;DHT22;35901;48.694;9.476;2022-09-13T13:39:42;29.60;54.30
50013;DHT22;35901;48.694;9.476;2022-09-13T13:57:39;28.70;55.50
50013;DHT22;35901;48.694;9.476;2022-09-13T14:05:45;28.90;54.80
50013;DHT22;35901;48.694;9.476;2022-09-13T14:08:31;29.10;55.50
50013;DHT22;35901;48.694;9.476;2022-09-13T14:19:36;27.70;57.00
50013;DHT22;35901;48.694;9.476;2022-09-13T14:22:15;27.60;58.90
50013;DHT22;35901;48.694;9.476;2022-09-13T14:24:49;27.50;58.50
50013;DHT22;35901;48.694;9.476;2022-09-13T14:27:34;27.30;58.10
50013;DHT22;35901;48.694;9.476;2022-09-13T14:30:16;27.30;58.30
50013;DHT22;35901;48.694;9.476;2022-09-13T14:32:44;27.30;59.70
50013;DHT22;35901;48.694;9.476;2022-09-13T14:35:30;27.50;60.80
50013;DHT22;35901;48.694;9.476;2022-09-13T14:38:10;27.60;60.20
50013;DHT22;35901;48.694;9.476;2022-09-13T14:40:36;27.50;60.40
50013;DHT22;35901;48.694;9.476;2022-09-13T14:43:14;27.50;61.20
50013;DHT22;35901;48.694;9.476;2022-09-13T14:45:41;27.50;60.80
50013;DHT22;35901;48.694;9.476;2022-09-13T14:48:25;27.50;60.10
50013;DHT22;35901;48.694;9.476;2022-09-13T14:50:57;27.50;59.50
50013;DHT22;35901;48.694;9.476;2022-09-13T14:53:26;27.40;59.70
50013;DHT22;35901;48.694;9.476;2022-09-13T14:56:01;27.40;62.90
50013;DHT22;35901;48.694;9.476;2022-09-13T14:58:32;27.40;64.90
50013;DHT22;35901;48.694;9.476;2022-09-13T15:01:12;27.30;61.60
50013;DHT22;35901;48.694;9.476;2022-09-13T15:03:47;27.40;61.30
50013;DHT22;35901;48.694;9.476;2022-09-13T15:06:29;27.40;62.40
50013;DHT22;35901;48.694;9.476;2022-09-13T15:09:26;27.60;62.60
50013;DHT22;35901;48.694;9.476;2022-09-13T15:14:30;27.10;61.10
50013;DHT22;35901;48.694;9.476;2022-09-13T15:17:06;27.00;61.80
50013;DHT22;35901;48.694;9.476;2022-09-13T15:19:49;26.80;62.90
50013;DHT22;35901;48.694;9.476;2022-09-13T15:22:22;26.50;63.30
50013;DHT22;35901;48.694;9.476;2022-09-13T15:24:54;26.30;64.90
50013;DHT22;35901;48.694;9.476;2022-09-13T15:27:42;26.20;64.70
50013;DHT22;35901;48.694;9.476;2022-09-13T15:30:27;26.10;64.40
50013;DHT22;35901;48.694;9.476;2022-09-13T15:33:26;26.00;65.90
50013;DHT22;35901;48.694;9.476;2022-09-13T15:36:32;26.00;65.50
50013;DHT22;35901;48.694;9.476;2022-09-13T15:39:02;26.00;66.50
50013;DHT22;35901;48.694;9.476;2022-09-13T15:41:53;26.10;67.00
50013;DHT22;35901;48.694;9.476;2022-09-13T15:44:19;26.10;66.60
50013;DHT22;35901;48.694;9.476;2022-09-13T15:46:56;26.20;67.50
50013;DHT22;35901;48.694;9.476;2022-09-13T15:49:26;26.20;65.90
50013;DHT22;35901;48.694;9.476;2022-09-13T15:52:19;26.10;66.90
50013;DHT22;35901;48.694;9.476;2022-09-13T15:57:48;25.90;68.30
50013;DHT22;35901;48.694;9.476;2022-09-13T16:00:17;25.80;68.70
50013;DHT22;35901;48.694;9.476;2022-09-13T16:02:43;25.70;69.80
50013;DHT22;35901;48.694;9.476;2022-09-13T16:05:09;25.60;69.80
50013;DHT22;35901;48.694;9.476;2022-09-13T16:07:36;25.50;69.50
50013;DHT22;35901;48.694;9.476;2022-09-13T16:10:03;25.40;69.60
50013;DHT22;35901;48.694;9.476;2022-09-13T16:12:29;25.30;70.20
50013;DHT22;35901;48.694;9.476;2022-09-13T16:14:54;25.20;70.10
50013;DHT22;35901;48.694;9.476;2022-09-13T16:17:23;25.10;71.20
50013;DHT22;35901;48.694;9.476;2022-09-13T16:19:50;25.00;72.40
50013;DHT22;35901;48.694;9.476;2022-09-13T16:22:16;24.80;73.10
50013;DHT22;35901;48.694;9.476;2022-09-13T16:24:42;24.80;72.30
50013;DHT22;35901;48.694;9.476;2022-09-13T16:27:11;24.70;71.90
50013;DHT22;35901;48.694;9.476;2022-09-13T16:29:37;24.70;71.30
50013;DHT22;35901;48.694;9.476;2022-09-13T16:32:02;24.70;71.60
50013;DHT22;35901;48.694;9.476;2022-09-13T16:34:29;24.60;71.60
50013;DHT22;35901;48.694;9.476;2022-09-13T16:36:55;24.60;72.00
50013;DHT22;35901;48.694;9.476;2022-09-13T16:39:20;24.50;73.50
50013;DHT22;35901;48.694;9.476;2022-09-13T16:41:46;24.40;74.90
50013;DHT22;35901;48.694;9.476;2022-09-13T16:44:13;24.30;76.30
50013;DHT22;35901;48.694;9.476;2022-09-13T16:46:39;24.20;77.20
50013;DHT22;35901;48.694;9.476;2022-09-13T16:49:05;24.10;77.80
50013;DHT22;35901;48.694;9.476;2022-09-13T16:51:31;23.90;78.90
50013;DHT22;35901;48.694;9.476;2022-09-13T16:53:56;23.70;80.30
50013;DHT22;35901;48.694;9.476;2022-09-13T16:56:24;23.40;81.80
50013;DHT22;35901;48.694;9.476;2022-09-13T16:58:51;23.20;82.70
50013;DHT22;35901;48.694;9.476;2022-09-13T17:01:28;23.20;81.70
50013;DHT22;35901;48.694;9.476;2022-09-13T17:03:54;23.10;80.70
50013;DHT22;35901;48.694;9.476;2022-09-13T17:06:22;23.20;79.50
50013;DHT22;35901;48.694;9.476;2022-09-13T17:08:51;23.40;78.60
50013;DHT22;35901;48.694;9.476;2022-09-13T17:11:20;23.40;78.10
50013;DHT22;35901;48.694;9.476;2022-09-13T17:13:46;23.40;78.10
50013;DHT22;35901;48.694;9.476;2022-09-13T17:16:31;23.30;78.00
50013;DHT22;35901;48.694;9.476;2022-09-13T17:18:59;23.30;77.60
50013;DHT22;35901;48.694;9.476;2022-09-13T17:21:26;23.20;77.30
50013;DHT22;35901;48.694;9.476;2022-09-13T17:23:52;23.10;77.20
50013;DHT22;35901;48.694;9.476;2022-09-13T17:26:18;23.00;79.30
50013;DHT22;35901;48.694;9.476;2022-09-13T17:28:44;22.70;82.80
50013;DHT22;35901;48.694;9.476;2022-09-13T17:31:10;22.30;85.40
50013;DHT22;35901;48.694;9.476;2022-09-13T17:33:36;22.00;85.60
50013;DHT22;35901;48.694;9.476;2022-09-13T17:36:10;21.90;86.20
50013;DHT22;35901;48.694;9.476;2022-09-13T17:38:36;21.80;85.80
50013;DHT22;35901;48.694;9.476;2022-09-13T17:41:05;21.80;86.20
50013;DHT22;35901;48.694;9.476;2022-09-13T17:43:32;21.80;86.60
50013;DHT22;35901;48.694;9.476;2022-09-13T17:46:06;21.80;86.40
50013;DHT22;35901;48.694;9.476;2022-09-13T17:48:33;21.70;85.90
50013;DHT22;35901;48.694;9.476;2022-09-13T17:51:28;21.70;85.50
50013;DHT22;35901;48.694;9.476;2022-09-13T17:53:59;21.60;87.20
50013;DHT22;35901;48.694;9.476;2022-09-13T17:56:31;21.30;88.40
50013;DHT22;35901;48.694;9.476;2022-09-13T17:59:15;21.10;89.10
50013;DHT22;35901;48.694;9.476;2022-09-13T18:01:44;20.90;90.40
50013;DHT22;35901;48.694;9.476;2022-09-13T18:04:11;20.70;90.40
50013;DHT22;35901;48.694;9.476;2022-09-13T18:06:37;20.60;90.90
50013;DHT22;35901;48.694;9.476;2022-09-13T18:09:10;20.50;91.10
50013;DHT22;35901;48.694;9.476;2022-09-13T18:11:37;20.40;91.30
50013;DHT22;35901;48.694;9.476;2022-09-13T18:14:03;20.30;91.30
50013;DHT22;35901;48.694;9.476;2022-09-13T18:16:28;20.20;91.20
50013;DHT22;35901;48.694;9.476;2022-09-13T18:18:54;20.20;91.10
50013;DHT22;35901;48.694;9.476;2022-09-13T18:21:23;20.10;91.20
50013;DHT22;35901;48.694;9.476;2022-09-13T18:23:50;20.00;91.30
50013;DHT22;35901;48.694;9.476;2022-09-13T18:26:19;19.90;91.40
50013;DHT22;35901;48.694;9.476;2022-09-13T18:28:46;19.90;91.50
50013;DHT22;35901;48.694;9.476;2022-09-13T18:31:16;19.80;91.50
50013;DHT22;35901;48.694;9.476;2022-09-13T18:33:43;19.70;91.90
50013;DHT22;35901;48.694;9.476;2022-09-13T18:36:16;19.50;92.20
50013;DHT22;35901;48.694;9.476;2022-09-13T18:38:44;19.40;92.20
50013;DHT22;35901;48.694;9.476;2022-09-13T18:41:12;19.40;92.30
50013;DHT22;35901;48.694;9.476;2022-09-13T18:43:40;19.40;92.20
50013;DHT22;35901;48.694;9.476;2022-09-13T18:46:11;19.40;92.20
50013;DHT22;35901;48.694;9.476;2022-09-13T18:48:42;19.30;92.30
50013;DHT22;35901;48.694;9.476;2022-09-13T18:51:10;19.20;92.50
50013;DHT22;35901;48.694;9.476;2022-09-13T18:53:36;19.10;92.60
50013;DHT22;35901;48.694;9.476;2022-09-13T18:56:04;19.10;92.70
50013;DHT22;35901;48.694;9.476;2022-09-13T18:58:31;19.00;92.90
50013;DHT22;35901;48.694;9.476;2022-09-13T19:01:05;18.90;93.20
50013;DHT22;35901;48.694;9.476;2022-09-13T19:03:31;18.80;93.40
50013;DHT22;35901;48.694;9.476;2022-09-13T19:06:11;18.70;93.60
50013;DHT22;35901;48.694;9.476;2022-09-13T19:08:38;18.60;93.70
50013;DHT22;35901;48.694;9.476;2022-09-13T19:11:04;18.50;94.10
50013;DHT22;35901;48.694;9.476;2022-09-13T19:13:31;18.50;94.60
50013;DHT22;35901;48.694;9.476;2022-09-13T19:16:01;18.40;95.00
50013;DHT22;35901;48.694;9.476;2022-09-13T19:18:28;18.40;95.60
50013;DHT22;35901;48.694;9.476;2022-09-13T19:23:27;18.40;96.60
50013;DHT22;35901;48.694;9.476;2022-09-13T19:25:52;18.40;96.60
50013;DHT22;35901;48.694;9.476;2022-09-13T19:28:18;18.50;96.70
50013;DHT22;35901;48.694;9.476;2022-09-13T19:30:44;18.60;96.20